sensor_id;sensor_type;location;lat;lon;timestamp;P1;durP1;ratioP1;P2;durP2;ratioP2
38312;SDS011;24114;52.260;6.714;2022-12-29T00:00:24;3.00;;;2.70;;
38312;SDS011;24114;52.260;6.714;2022-12-29T00:02:52;2.33;;;2.10;;
38312;SDS011;24114;52.260;6.714;2022-12-29T00:05:20;2.88;;;2.22;;
38312;SDS011;24114;52.260;6.714;2022-12-29T00:07:49;2.10;;;2.00;;
38312;SDS011;24114;52.260;6.714;2022-12-29T00:10:17;2.70;;;2.08;;
38312;SDS011;24114;52.260;6.714;2022-12-29T00:12:44;2.53;;;2.33;;
38312;SDS011;24114;52.260;6.714;2022-12-29T00:15:30;2.30;;;2.10;;
38312;SDS011;24114;52.260;6.714;2022-12-29T00:18:07;3.25;;;2.20;;
38312;SDS011;24114;52.260;6.714;2022-12-29T00:20:35;2.83;;;1.67;;
38312;SDS011;24114;52.260;6.714;2022-12-29T18:01:23;4.35;;;1.33;;
38312;SDS011;24114;52.260;6.714;2022-12-29T18:03:59;6.25;;;2.47;;
38312;SDS011;24114;52.260;6.714;2022-12-29T18:06:27;16.70;;;13.70;;
38312;SDS011;24114;52.260;6.714;2022-12-29T18:08:55;20.40;;;14.98;;
38312;SDS011;24114;52.260;6.714;2022-12-29T18:11:22;15.80;;;11.75;;
38312;SDS011;24114;52.260;6.714;2022-12-29T18:13:51;17.15;;;9.90;;
38312;SDS011;24114;52.260;6.714;2022-12-29T18:16:20;8.98;;;6.07;;
38312;SDS011;24114;52.260;6.714;2022-12-29T18:18:49;14.48;;;9.75;;
38312;SDS011;24114;52.260;6.714;2022-12-29T18:21:18;6.75;;;4.45;;
38312;SDS011;24114;52.260;6.714;2022-12-29T18:23:46;6.80;;;3.90;;
38312;SDS011;24114;52.260;6.714;2022-12-29T18:26:15;5.13;;;2.72;;
38312;SDS011;24114;52.260;6.714;2022-12-29T18:28:52;7.67;;;2.70;;
38312;SDS011;24114;52.260;6.714;2022-12-29T18:31:21;5.50;;;1.95;;
38312;SDS011;24114;52.260;6.714;2022-12-29T18:33:52;5.68;;;2.42;;
38312;SDS011;24114;52.260;6.714;2022-12-29T18:36:20;5.68;;;1.38;;
38312;SDS011;24114;52.260;6.714;2022-12-29T18:38:48;5.68;;;1.63;;
38312;SDS011;24114;52.260;6.714;2022-12-29T18:41:19;6.57;;;3.20;;
38312;SDS011;24114;52.260;6.714;2022-12-29T18:43:48;4.93;;;1.63;;
38312;SDS011;24114;52.260;6.714;2022-12-29T18:46:16;6.00;;;2.95;;
38312;SDS011;24114;52.260;6.714;2022-12-29T18:48:48;6.67;;;3.90;;
38312;SDS011;24114;52.260;6.714;2022-12-29T18:51:19;13.70;;;10.27;;
38312;SDS011;24114;52.260;6.714;2022-12-29T18:53:48;6.60;;;3.20;;
38312;SDS011;24114;52.260;6.714;2022-12-29T18:56:17;7.65;;;3.85;;
38312;SDS011;24114;52.260;6.714;2022-12-29T18:58:46;6.97;;;1.50;;
38312;SDS011;24114;52.260;6.714;2022-12-29T19:01:15;4.07;;;1.10;;
38312;SDS011;24114;52.260;6.714;2022-12-29T19:03:46;6.78;;;2.28;;
38312;SDS011;24114;52.260;6.714;2022-12-29T19:06:14;4.90;;;1.88;;
38312;SDS011;24114;52.260;6.714;2022-12-29T19:08:43;6.20;;;2.45;;
38312;SDS011;24114;52.260;6.714;2022-12-29T19:11:11;6.67;;;1.63;;
38312;SDS011;24114;52.260;6.714;2022-12-29T19:13:38;6.07;;;1.58;;
38312;SDS011;24114;52.260;6.714;2022-12-29T19:16:07;7.93;;;2.10;;
38312;SDS011;24114;52.260;6.714;2022-12-29T19:18:35;4.78;;;1.65;;
38312;SDS011;24114;52.260;6.714;2022-12-29T19:21:23;8.10;;;2.63;;
38312;SDS011;24114;52.260;6.714;2022-12-29T19:23:52;9.18;;;3.30;;
38312;SDS011;24114;52.260;6.714;2022-12-29T19:26:26;7.80;;;2.03;;
38312;SDS011;24114;52.260;6.714;2022-12-29T19:28:55;4.70;;;2.13;;
38312;SDS011;24114;52.260;6.714;2022-12-29T19:31:23;6.50;;;2.25;;
38312;SDS011;24114;52.260;6.714;2022-12-29T19:33:51;7.15;;;2.22;;
38312;SDS011;24114;52.260;6.714;2022-12-29T19:36:19;6.87;;;2.60;;
38312;SDS011;24114;52.260;6.714;2022-12-29T19:38:47;8.82;;;2.55;;
38312;SDS011;24114;52.260;6.714;2022-12-29T19:41:16;9.00;;;3.37;;
38312;SDS011;24114;52.260;6.714;2022-12-29T19:43:44;6.45;;;1.75;;
38312;SDS011;24114;52.260;6.714;2022-12-29T19:46:14;9.95;;;4.50;;
38312;SDS011;24114;52.260;6.714;2022-12-29T19:48:43;8.80;;;3.03;;
38312;SDS011;24114;52.260;6.714;2022-12-29T19:51:11;8.48;;;3.60;;
38312;SDS011;24114;52.260;6.714;2022-12-29T19:53:40;12.82;;;4.28;;
38312;SDS011;24114;52.260;6.714;2022-12-29T19:56:08;11.45;;;5.20;;
38312;SDS011;24114;52.260;6.714;2022-12-29T19:58:38;7.68;;;2.40;;
38312;SDS011;24114;52.260;6.714;2022-12-29T20:01:13;8.07;;;2.85;;
38312;SDS011;24114;52.260;6.714;2022-12-29T20:03:42;15.32;;;9.40;;
38312;SDS011;24114;52.260;6.714;2022-12-29T20:06:10;11.40;;;5.23;;
38312;SDS011;24114;52.260;6.714;2022-12-29T20:08:38;14.00;;;8.98;;
38312;SDS011;24114;52.260;6.714;2022-12-29T20:11:07;9.68;;;4.25;;
38312;SDS011;24114;52.260;6.714;2022-12-29T20:13:38;11.13;;;5.75;;
38312;SDS011;24114;52.260;6.714;2022-12-29T20:16:08;11.00;;;5.77;;
38312;SDS011;24114;52.260;6.714;2022-12-29T20:18:38;9.93;;;5.00;;
38312;SDS011;24114;52.260;6.714;2022-12-29T20:21:06;8.32;;;4.40;;
38312;SDS011;24114;52.260;6.714;2022-12-29T20:23:36;11.90;;;4.10;;
38312;SDS011;24114;52.260;6.714;2022-12-29T20:26:04;11.30;;;3.38;;
38312;SDS011;24114;52.260;6.714;2022-12-29T20:28:34;11.27;;;3.70;;
38312;SDS011;24114;52.260;6.714;2022-12-29T20:31:04;9.43;;;3.37;;
38312;SDS011;24114;52.260;6.714;2022-12-29T20:33:34;8.98;;;3.05;;
38312;SDS011;24114;52.260;6.714;2022-12-29T20:36:03;12.50;;;3.37;;
38312;SDS011;24114;52.260;6.714;2022-12-29T20:38:32;12.13;;;3.90;;
38312;SDS011;24114;52.260;6.714;2022-12-29T20:41:00;8.68;;;2.53;;
38312;SDS011;24114;52.260;6.714;2022-12-29T20:43:28;8.73;;;2.72;;
38312;SDS011;24114;52.260;6.714;2022-12-29T20:45:55;11.63;;;3.57;;
38312;SDS011;24114;52.260;6.714;2022-12-29T20:48:24;11.38;;;3.75;;
38312;SDS011;24114;52.260;6.714;2022-12-29T20:50:52;12.95;;;4.20;;
38312;SDS011;24114;52.260;6.714;2022-12-29T20:53:24;12.02;;;3.97;;
38312;SDS011;24114;52.260;6.714;2022-12-29T20:55:52;13.38;;;4.25;;
38312;SDS011;24114;52.260;6.714;2022-12-29T20:58:20;11.38;;;4.90;;
38312;SDS011;24114;52.260;6.714;2022-12-29T21:00:49;12.40;;;5.80;;
38312;SDS011;24114;52.260;6.714;2022-12-29T21:03:18;14.98;;;6.03;;
38312;SDS011;24114;52.260;6.714;2022-12-29T21:05:47;15.02;;;5.47;;
38312;SDS011;24114;52.260;6.714;2022-12-29T21:08:15;16.15;;;5.30;;
38312;SDS011;24114;52.260;6.714;2022-12-29T21:10:44;13.15;;;4.97;;
38312;SDS011;24114;52.260;6.714;2022-12-29T21:13:13;11.80;;;3.70;;
38312;SDS011;24114;52.260;6.714;2022-12-29T21:15:41;12.10;;;4.60;;
38312;SDS011;24114;52.260;6.714;2022-12-29T21:18:09;10.43;;;3.22;;
38312;SDS011;24114;52.260;6.714;2022-12-29T21:20:37;13.10;;;3.50;;
38312;SDS011;24114;52.260;6.714;2022-12-29T21:23:06;11.35;;;3.72;;
38312;SDS011;24114;52.260;6.714;2022-12-29T21:25:34;13.02;;;3.22;;
38312;SDS011;24114;52.260;6.714;2022-12-29T21:28:03;13.82;;;4.20;;
38312;SDS011;24114;52.260;6.714;2022-12-29T21:30:31;13.07;;;4.22;;
38312;SDS011;24114;52.260;6.714;2022-12-29T21:32:58;14.38;;;3.90;;
38312;SDS011;24114;52.260;6.714;2022-12-29T21:35:26;15.63;;;3.97;;
38312;SDS011;24114;52.260;6.714;2022-12-29T21:37:54;13.50;;;3.53;;
38312;SDS011;24114;52.260;6.714;2022-12-29T21:40:24;10.93;;;3.42;;
38312;SDS011;24114;52.260;6.714;2022-12-29T21:42:52;10.67;;;3.13;;
38312;SDS011;24114;52.260;6.714;2022-12-29T21:45:19;12.40;;;3.20;;
38312;SDS011;24114;52.260;6.714;2022-12-29T21:47:53;12.88;;;3.38;;
38312;SDS011;24114;52.260;6.714;2022-12-29T21:50:48;13.57;;;3.13;;
38312;SDS011;24114;52.260;6.714;2022-12-29T21:53:36;13.02;;;4.18;;
38312;SDS011;24114;52.260;6.714;2022-12-29T21:56:07;15.13;;;4.33;;
38312;SDS011;24114;52.260;6.714;2022-12-29T21:58:36;11.73;;;3.15;;
38312;SDS011;24114;52.260;6.714;2022-12-29T22:01:22;12.23;;;3.35;;
38312;SDS011;24114;52.260;6.714;2022-12-29T22:04:10;14.00;;;3.15;;
38312;SDS011;24114;52.260;6.714;2022-12-29T22:06:55;12.85;;;2.88;;
38312;SDS011;24114;52.260;6.714;2022-12-29T22:09:41;16.52;;;4.13;;
38312;SDS011;24114;52.260;6.714;2022-12-29T22:12:29;11.10;;;2.92;;
38312;SDS011;24114;52.260;6.714;2022-12-29T22:15:14;10.30;;;2.63;;
38312;SDS011;24114;52.260;6.714;2022-12-29T22:17:42;12.88;;;3.30;;
38312;SDS011;24114;52.260;6.714;2022-12-29T22:20:14;12.45;;;3.20;;
38312;SDS011;24114;52.260;6.714;2022-12-29T22:22:42;13.45;;;3.17;;
38312;SDS011;24114;52.260;6.714;2022-12-29T22:25:10;14.95;;;3.83;;
38312;SDS011;24114;52.260;6.714;2022-12-29T22:27:39;11.27;;;2.95;;
38312;SDS011;24114;52.260;6.714;2022-12-29T22:30:07;15.50;;;3.17;;
38312;SDS011;24114;52.260;6.714;2022-12-29T22:32:36;11.32;;;3.05;;
38312;SDS011;24114;52.260;6.714;2022-12-29T22:35:04;12.23;;;2.58;;
38312;SDS011;24114;52.260;6.714;2022-12-29T22:37:34;14.57;;;3.07;;
38312;SDS011;24114;52.260;6.714;2022-12-29T22:40:06;11.65;;;3.10;;
38312;SDS011;24114;52.260;6.714;2022-12-29T22:42:35;10.77;;;2.53;;
38312;SDS011;24114;52.260;6.714;2022-12-29T22:45:04;12.13;;;2.97;;
38312;SDS011;24114;52.260;6.714;2022-12-29T22:47:33;12.35;;;3.17;;
38312;SDS011;24114;52.260;6.714;2022-12-29T22:50:01;10.35;;;2.78;;
38312;SDS011;24114;52.260;6.714;2022-12-29T22:52:29;10.77;;;2.42;;
38312;SDS011;24114;52.260;6.714;2022-12-29T22:54:57;13.68;;;3.20;;
38312;SDS011;24114;52.260;6.714;2022-12-29T22:57:32;10.63;;;2.60;;
38312;SDS011;24114;52.260;6.714;2022-12-29T22:59:59;10.93;;;3.00;;
38312;SDS011;24114;52.260;6.714;2022-12-29T23:02:29;15.40;;;3.08;;
38312;SDS011;24114;52.260;6.714;2022-12-29T23:04:57;10.77;;;2.60;;
38312;SDS011;24114;52.260;6.714;2022-12-29T23:07:29;11.63;;;2.63;;
38312;SDS011;24114;52.260;6.714;2022-12-29T23:09:57;9.57;;;2.85;;
38312;SDS011;24114;52.260;6.714;2022-12-29T23:12:26;11.70;;;2.80;;
38312;SDS011;24114;52.260;6.714;2022-12-29T23:14:55;11.55;;;3.17;;
38312;SDS011;24114;52.260;6.714;2022-12-29T23:17:23;8.55;;;2.60;;
38312;SDS011;24114;52.260;6.714;2022-12-29T23:19:52;8.65;;;2.47;;
38312;SDS011;24114;52.260;6.714;2022-12-29T23:22:20;10.02;;;2.47;;
38312;SDS011;24114;52.260;6.714;2022-12-29T23:24:50;19.20;;;7.85;;
38312;SDS011;24114;52.260;6.714;2022-12-29T23:27:18;18.00;;;8.05;;
38312;SDS011;24114;52.260;6.714;2022-12-29T23:29:45;27.48;;;14.75;;
38312;SDS011;24114;52.260;6.714;2022-12-29T23:32:13;19.80;;;8.87;;
38312;SDS011;24114;52.260;6.714;2022-12-29T23:34:41;28.00;;;15.75;;
38312;SDS011;24114;52.260;6.714;2022-12-29T23:37:10;27.17;;;13.77;;
38312;SDS011;24114;52.260;6.714;2022-12-29T23:39:38;28.88;;;13.85;;
38312;SDS011;24114;52.260;6.714;2022-12-29T23:42:05;32.33;;;17.77;;
38312;SDS011;24114;52.260;6.714;2022-12-29T23:44:33;26.13;;;13.07;;
38312;SDS011;24114;52.260;6.714;2022-12-29T23:47:01;51.70;;;29.75;;
38312;SDS011;24114;52.260;6.714;2022-12-29T23:49:29;33.97;;;18.75;;
38312;SDS011;24114;52.260;6.714;2022-12-29T23:51:57;30.73;;;16.67;;
38312;SDS011;24114;52.260;6.714;2022-12-29T23:54:26;22.05;;;11.85;;
38312;SDS011;24114;52.260;6.714;2022-12-29T23:56:54;24.52;;;12.77;;
38312;SDS011;24114;52.260;6.714;2022-12-29T23:59:22;15.70;;;5.82;;
